createdAt,value
2022-11-12T00:02:15.540Z,9.23
2022-11-12T00:05:00.849Z,9.28
2022-11-12T00:07:46.531Z,9.30
2022-11-12T00:10:32.378Z,9.30
2022-11-12T00:13:18.082Z,9.28
2022-11-12T00:16:02.978Z,9.27
2022-11-12T00:18:48.746Z,9.26
2022-11-12T00:21:33.959Z,9.27
2022-11-12T00:24:19.139Z,9.27
2022-11-12T00:27:04.276Z,9.25
2022-11-12T00:29:49.622Z,9.24
2022-11-12T00:32:38.469Z,9.20
2022-11-12T00:35:23.770Z,9.21
2022-11-12T00:38:08.952Z,9.16
2022-11-12T00:40:54.599Z,9.13
2022-11-12T00:43:40.943Z,9.11
2022-11-12T00:46:26.023Z,9.12
2022-11-12T00:49:12.463Z,9.09
2022-11-12T00:51:57.545Z,9.08
2022-11-12T00:54:42.933Z,9.03
2022-11-12T00:57:29.956Z,9.03
2022-11-12T01:00:17.780Z,9.01
2022-11-12T01:03:03.258Z,9.02
2022-11-12T01:05:48.300Z,9.00
2022-11-12T01:08:33.773Z,8.98
2022-11-12T01:11:21.848Z,8.96
2022-11-12T01:14:09.026Z,8.95
2022-11-12T01:16:54.309Z,8.95
2022-11-12T01:19:40.349Z,8.95
2022-11-12T01:22:25.708Z,8.95
2022-11-12T01:25:11.589Z,8.94
2022-11-12T01:27:56.719Z,8.93
2022-11-12T01:30:41.813Z,8.89
2022-11-12T01:33:27.390Z,8.87
2022-11-12T01:36:13.648Z,8.84
2022-11-12T01:38:59.091Z,8.85
2022-11-12T01:41:44.472Z,8.83
2022-11-12T01:44:32.423Z,8.83
2022-11-12T01:47:33.105Z,8.81
2022-11-12T01:50:26.693Z,8.84
2022-11-12T01:53:14.125Z,8.85
2022-11-12T01:56:00.863Z,8.86
2022-11-12T01:58:49.212Z,8.88
2022-11-12T02:01:36.046Z,8.87
2022-11-12T02:04:23.716Z,8.87
2022-11-12T02:07:09.880Z,8.87
2022-11-12T02:09:55.965Z,8.91
2022-11-12T02:13:00.192Z,8.94
2022-11-12T02:18:54.412Z,8.95
2022-11-12T02:21:40.095Z,9.04
2022-11-12T02:24:25.256Z,9.11
2022-11-12T02:27:12.568Z,9.14
2022-11-12T02:29:58.020Z,9.21
2022-11-12T02:32:43.258Z,9.31
2022-11-12T02:35:28.678Z,9.37
2022-11-12T02:38:13.791Z,9.41
2022-11-12T02:40:58.723Z,9.43
2022-11-12T02:43:45.312Z,9.44
2022-11-12T02:46:30.533Z,9.48
2022-11-12T02:49:15.705Z,9.43
2022-11-12T02:52:00.959Z,9.39
2022-11-12T02:54:46.285Z,9.38
2022-11-12T02:57:31.615Z,9.35
2022-11-12T03:00:18.422Z,9.33
2022-11-12T03:03:03.714Z,9.30
2022-11-12T03:05:59.813Z,9.25
2022-11-12T03:08:45.383Z,9.25
2022-11-12T03:11:30.404Z,9.21
2022-11-12T03:14:15.663Z,9.16
2022-11-12T03:17:00.937Z,9.12
2022-11-12T03:19:46.235Z,9.11
2022-11-12T03:22:31.316Z,9.08
2022-11-12T03:25:16.775Z,9.04
2022-11-12T03:28:03.378Z,8.98
2022-11-12T03:30:48.969Z,8.93
2022-11-12T03:33:34.538Z,8.90
2022-11-12T03:36:19.939Z,8.88
2022-11-12T03:39:04.969Z,8.82
2022-11-12T03:41:50.014Z,8.81
2022-11-12T03:44:35.412Z,8.79
2022-11-12T03:47:20.823Z,8.80
2022-11-12T03:50:07.223Z,8.78
2022-11-12T03:52:54.765Z,8.76
2022-11-12T03:55:40.404Z,8.75
2022-11-12T03:58:25.913Z,8.80
2022-11-12T04:01:11.789Z,8.81
2022-11-12T04:03:57.514Z,8.81
2022-11-12T04:07:01.147Z,8.83
2022-11-12T04:09:46.275Z,8.81
2022-11-12T04:12:50.059Z,8.83
2022-11-12T04:15:34.914Z,8.80
2022-11-12T04:18:38.529Z,8.82
2022-11-12T04:21:47.323Z,8.75
2022-11-12T04:24:53.465Z,8.74
2022-11-12T04:27:39.208Z,8.72
2022-11-12T04:30:24.164Z,8.68
2022-11-12T04:33:09.609Z,8.65
2022-11-12T04:35:54.938Z,8.62
2022-11-12T04:38:40.321Z,8.63
2022-11-12T04:41:44.336Z,8.58
2022-11-12T04:44:49.099Z,8.52
2022-11-12T04:47:43.947Z,8.46
2022-11-12T04:50:29.253Z,8.49
2022-11-12T04:53:15.673Z,8.42
2022-11-12T04:56:00.963Z,8.35
2022-11-12T04:58:46.180Z,8.40
2022-11-12T05:01:31.640Z,8.37
2022-11-12T05:04:17.089Z,8.36
2022-11-12T05:07:02.578Z,8.35
2022-11-12T05:09:48.198Z,8.31
2022-11-12T05:12:33.470Z,8.28
2022-11-12T05:15:18.709Z,8.26
2022-11-12T05:18:04.061Z,8.24
2022-11-12T05:20:51.430Z,8.22
2022-11-12T05:23:36.988Z,8.19
2022-11-12T05:26:22.258Z,8.19
2022-11-12T05:29:09.034Z,8.18
2022-11-12T05:31:55.012Z,8.18
2022-11-12T05:34:40.585Z,8.21
2022-11-12T05:37:26.232Z,8.20
2022-11-12T05:40:12.008Z,8.21
2022-11-12T05:42:57.282Z,8.21
2022-11-12T05:45:44.163Z,8.19
2022-11-12T05:48:29.997Z,8.22
2022-11-12T05:51:16.308Z,8.24
2022-11-12T05:54:01.814Z,8.25
2022-11-12T05:56:47.408Z,8.27
2022-11-12T05:59:32.774Z,8.29
2022-11-12T06:02:18.194Z,8.35
2022-11-12T06:05:04.689Z,8.37
2022-11-12T06:07:49.751Z,8.41
2022-11-12T06:10:35.266Z,8.45
2022-11-12T06:13:22.847Z,8.43
2022-11-12T06:16:09.205Z,8.46
2022-11-12T06:18:54.430Z,8.51
2022-11-12T06:21:39.738Z,8.58
2022-11-12T06:24:26.112Z,8.76
2022-11-12T06:27:13.859Z,9.00
2022-11-12T06:29:59.330Z,9.28
2022-11-12T06:32:48.809Z,9.53
2022-11-12T06:35:33.979Z,9.89
2022-11-12T06:38:19.198Z,10.18
2022-11-12T06:41:05.189Z,10.41
2022-11-12T06:43:50.477Z,10.67
2022-11-12T06:46:35.779Z,10.93
2022-11-12T06:49:21.204Z,11.13
2022-11-12T06:52:06.441Z,11.27
2022-11-12T06:54:52.986Z,11.32
2022-11-12T06:57:39.415Z,11.23
2022-11-12T07:00:24.853Z,11.07
2022-11-12T07:03:13.283Z,10.86
2022-11-12T07:05:59.083Z,10.77
2022-11-12T07:08:44.455Z,10.73
2022-11-12T07:11:29.996Z,10.77
2022-11-12T07:14:15.383Z,10.81
2022-11-12T07:17:00.829Z,10.86
2022-11-12T07:19:46.728Z,11.08
2022-11-12T07:22:34.607Z,11.25
2022-11-12T07:25:19.993Z,11.51
2022-11-12T07:28:05.327Z,11.68
2022-11-12T07:30:59.409Z,11.71
2022-11-12T07:33:46.158Z,11.77
2022-11-12T07:36:31.720Z,11.80
2022-11-12T07:39:17.039Z,11.99
2022-11-12T07:42:01.998Z,12.10
2022-11-12T07:44:47.600Z,12.14
2022-11-12T07:47:32.987Z,12.16
2022-11-12T07:50:18.440Z,12.29
2022-11-12T07:53:03.394Z,12.44
2022-11-12T07:56:00.017Z,12.59
2022-11-12T07:58:46.135Z,12.94
2022-11-12T08:01:34.244Z,13.13
2022-11-12T08:04:20.769Z,13.39
2022-11-12T08:07:06.365Z,13.64
2022-11-12T08:09:51.587Z,13.84
2022-11-12T08:12:36.937Z,14.04
2022-11-12T08:15:22.312Z,14.15
2022-11-12T08:18:07.422Z,14.25
2022-11-12T08:20:52.863Z,14.30
2022-11-12T08:23:37.890Z,14.22
2022-11-12T08:26:23.823Z,14.14
2022-11-12T08:29:09.286Z,14.06
2022-11-12T08:31:54.751Z,14.05
2022-11-12T08:34:41.530Z,14.00
2022-11-12T08:37:26.967Z,13.74
2022-11-12T08:40:12.753Z,13.52
2022-11-12T08:43:05.973Z,13.31
2022-11-12T08:45:51.263Z,13.08
2022-11-12T08:48:36.834Z,12.82
2022-11-12T08:51:22.007Z,12.70
2022-11-12T08:54:07.327Z,12.54
2022-11-12T08:56:52.865Z,12.42
2022-11-12T08:59:38.067Z,12.28
2022-11-12T09:02:23.370Z,12.16
2022-11-12T09:05:08.940Z,12.07
2022-11-12T09:08:02.096Z,11.93
2022-11-12T09:10:48.077Z,11.80
2022-11-12T09:13:33.768Z,11.66
2022-11-12T09:16:19.367Z,11.55
2022-11-12T09:19:04.640Z,11.48
2022-11-12T09:21:50.964Z,11.48
2022-11-12T09:24:36.369Z,11.50
2022-11-12T09:27:22.087Z,11.58
2022-11-12T09:30:08.773Z,11.71
2022-11-12T09:32:58.604Z,11.84
2022-11-12T09:35:46.764Z,11.99
2022-11-12T09:38:32.408Z,12.15
2022-11-12T09:41:37.975Z,12.19
2022-11-12T09:44:24.503Z,12.29
2022-11-12T09:47:19.300Z,12.38
2022-11-12T09:50:26.248Z,12.44
2022-11-12T09:53:29.490Z,12.51
2022-11-12T09:56:20.569Z,12.59
2022-11-12T09:59:14.528Z,12.62
2022-11-12T10:02:26.055Z,12.63
2022-11-12T10:05:31.979Z,12.69
2022-11-12T10:08:35.079Z,12.69
2022-11-12T10:11:28.860Z,12.72
2022-11-12T10:14:31.363Z,12.74
2022-11-12T10:17:41.896Z,12.82
2022-11-12T10:20:51.321Z,13.02
2022-11-12T10:23:46.049Z,13.05
2022-11-12T10:26:34.055Z,13.19
2022-11-12T10:29:36.347Z,13.22
2022-11-12T10:32:21.446Z,13.35
2022-11-12T10:35:06.930Z,13.40
2022-11-12T10:37:57.628Z,13.49
2022-11-12T10:40:43.833Z,13.58
2022-11-12T10:43:29.178Z,13.60
2022-11-12T10:46:26.863Z,13.57
2022-11-12T10:49:14.881Z,13.62
2022-11-12T10:52:00.537Z,13.70
2022-11-12T10:54:48.628Z,13.74
2022-11-12T10:57:37.766Z,13.76
2022-11-12T11:00:23.341Z,13.80
2022-11-12T11:03:24.885Z,13.76
2022-11-12T11:06:24.745Z,13.76
2022-11-12T11:09:13.053Z,13.78
2022-11-12T11:11:58.526Z,13.81
2022-11-12T11:14:44.696Z,13.86
2022-11-12T11:17:31.337Z,13.90
2022-11-12T11:20:26.642Z,13.94
2022-11-12T11:23:24.561Z,13.97
2022-11-12T11:27:02.182Z,13.89
2022-11-12T11:30:11.223Z,13.93
2022-11-12T11:33:17.388Z,14.02
2022-11-12T11:36:13.956Z,13.95
2022-11-12T11:39:20.238Z,13.94
2022-11-12T11:42:08.348Z,13.90
2022-11-12T11:45:12.040Z,13.82
2022-11-12T11:48:05.486Z,13.81
2022-11-12T11:51:02.951Z,13.84
2022-11-12T11:53:51.198Z,13.89
2022-11-12T11:56:43.802Z,13.91
2022-11-12T11:59:46.084Z,13.89
2022-11-12T12:02:36.982Z,13.98
2022-11-12T12:05:39.865Z,13.95
2022-11-12T12:08:37.363Z,14.00
2022-11-12T12:11:34.577Z,14.03
2022-11-12T12:14:47.206Z,13.99
2022-11-12T12:17:51.439Z,14.01
2022-11-12T12:20:42.946Z,14.02
2022-11-12T12:23:42.838Z,14.01
2022-11-12T12:26:34.020Z,14.00
2022-11-12T12:29:49.986Z,14.03
2022-11-12T12:33:07.386Z,13.97
2022-11-12T12:36:18.112Z,13.98
2022-11-12T12:39:13.743Z,14.07
2022-11-12T12:42:21.925Z,14.03
2022-11-12T12:45:35.725Z,14.02
2022-11-12T12:48:27.614Z,14.12
2022-11-12T12:51:13.359Z,14.15
2022-11-12T12:53:59.288Z,14.17
2022-11-12T12:56:47.859Z,14.14
2022-11-12T12:59:33.505Z,14.21
2022-11-12T13:02:25.527Z,14.25
2022-11-12T13:05:33.050Z,14.24
2022-11-12T13:08:26.085Z,14.32
2022-11-12T13:11:51.569Z,14.39
2022-11-12T13:14:36.860Z,14.34
2022-11-12T13:17:42.464Z,14.25
2022-11-12T13:20:36.728Z,14.33
2022-11-12T13:24:03.752Z,14.26
2022-11-12T13:26:54.023Z,14.30
2022-11-12T13:29:41.324Z,14.34
2022-11-12T13:32:33.732Z,14.36
2022-11-12T13:35:37.261Z,14.28
2022-11-12T13:38:22.822Z,14.28
2022-11-12T13:41:40.072Z,14.21
2022-11-12T13:44:27.200Z,14.23
2022-11-12T13:47:16.520Z,14.22
2022-11-12T13:50:02.403Z,14.22
2022-11-12T13:52:49.161Z,14.25
2022-11-12T13:55:34.340Z,14.26
2022-11-12T13:58:26.930Z,14.23
2022-11-12T14:01:13.366Z,14.17
2022-11-12T14:04:00.759Z,14.13
2022-11-12T14:06:50.173Z,14.07
2022-11-12T14:10:27.907Z,13.93
2022-11-12T14:13:42.936Z,13.95
2022-11-12T14:16:48.620Z,13.87
2022-11-12T14:19:42.658Z,13.93
2022-11-12T14:22:38.957Z,13.89
2022-11-12T14:25:27.113Z,13.86
2022-11-12T14:28:27.821Z,13.78
2022-11-12T14:31:15.567Z,13.80
2022-11-12T14:34:22.096Z,13.69
2022-11-12T14:37:33.396Z,13.71
2022-11-12T14:40:20.284Z,13.70
2022-11-12T14:43:06.178Z,13.65
2022-11-12T14:45:53.589Z,13.57
2022-11-12T14:49:12.353Z,13.46
2022-11-12T14:52:05.870Z,13.40
2022-11-12T14:54:56.249Z,13.29
2022-11-12T14:57:42.096Z,13.20
2022-11-12T15:00:38.523Z,13.11
2022-11-12T15:03:30.782Z,13.08
2022-11-12T15:06:26.909Z,12.92
2022-11-12T15:09:17.838Z,12.93
2022-11-12T15:12:09.467Z,12.84
2022-11-12T15:15:05.159Z,12.76
2022-11-12T15:18:26.986Z,12.62
2022-11-12T15:21:27.989Z,12.45
2022-11-12T15:24:12.957Z,12.45
2022-11-12T15:27:00.436Z,12.37
2022-11-12T15:29:45.821Z,12.29
2022-11-12T15:32:33.857Z,12.22
2022-11-12T15:35:27.369Z,12.17
2022-11-12T15:38:21.855Z,12.08
2022-11-12T15:41:19.930Z,12.04
2022-11-12T15:44:08.239Z,11.99
2022-11-12T15:46:54.138Z,11.95
2022-11-12T15:49:48.788Z,11.85
2022-11-12T15:52:34.238Z,11.85
2022-11-12T15:55:20.647Z,11.82
2022-11-12T15:58:12.159Z,11.77
2022-11-12T16:00:58.119Z,11.77
2022-11-12T16:03:43.507Z,11.70
2022-11-12T16:06:29.226Z,11.64
2022-11-12T16:09:14.259Z,11.59
2022-11-12T16:12:00.590Z,11.54
2022-11-12T16:14:45.951Z,11.48
2022-11-12T16:17:31.521Z,11.46
2022-11-12T16:20:23.231Z,11.41
2022-11-12T16:23:08.371Z,11.39
2022-11-12T16:25:54.198Z,11.38
2022-11-12T16:28:39.739Z,11.33
2022-11-12T16:31:25.498Z,11.32
2022-11-12T16:34:11.424Z,11.30
2022-11-12T16:36:57.326Z,11.28
2022-11-12T16:39:42.762Z,11.22
2022-11-12T16:42:28.941Z,11.20
2022-11-12T16:45:22.303Z,11.19
2022-11-12T16:48:21.813Z,11.14
2022-11-12T16:51:10.212Z,11.12
2022-11-12T16:53:55.596Z,11.09
2022-11-12T16:56:41.029Z,11.05
2022-11-12T16:59:26.456Z,11.02
2022-11-12T17:02:15.754Z,10.95
2022-11-12T17:05:05.286Z,10.88
2022-11-12T17:07:55.134Z,10.81
2022-11-12T17:10:40.404Z,10.76
2022-11-12T17:13:26.398Z,10.73
2022-11-12T17:16:12.451Z,10.70
2022-11-12T17:18:59.604Z,10.70
2022-11-12T17:21:44.974Z,10.65
2022-11-12T17:24:30.355Z,10.57
2022-11-12T17:27:15.776Z,10.54
2022-11-12T17:30:00.965Z,10.51
2022-11-12T17:32:46.450Z,10.49
2022-11-12T17:35:34.469Z,10.45
2022-11-12T17:38:20.129Z,10.47
2022-11-12T17:41:06.691Z,10.46
2022-11-12T17:44:01.786Z,10.41
2022-11-12T17:46:48.083Z,10.43
2022-11-12T17:49:33.177Z,10.42
2022-11-12T17:52:18.519Z,10.39
2022-11-12T17:55:03.616Z,10.37
2022-11-12T17:57:49.718Z,10.35
2022-11-12T18:00:36.939Z,10.27
2022-11-12T18:03:22.279Z,10.23
2022-11-12T18:06:15.359Z,10.21
2022-11-12T18:09:04.822Z,10.18
2022-11-12T18:11:56.892Z,10.15
2022-11-12T18:14:42.277Z,10.13
2022-11-12T18:17:27.646Z,10.10
2022-11-12T18:20:13.225Z,10.04
2022-11-12T18:22:58.302Z,10.03
2022-11-12T18:25:43.545Z,10.02
2022-11-12T18:28:29.327Z,10.03
2022-11-12T18:31:14.389Z,10.03
2022-11-12T18:33:59.789Z,10.04
2022-11-12T18:36:45.226Z,10.00
2022-11-12T18:39:30.939Z,9.98
2022-11-12T18:42:15.965Z,9.95
2022-11-12T18:45:00.893Z,9.92
2022-11-12T18:47:46.374Z,9.90
2022-11-12T18:50:32.774Z,9.87
2022-11-12T18:53:18.244Z,9.85
2022-11-12T18:56:15.199Z,9.78
2022-11-12T18:59:00.632Z,9.81
2022-11-12T19:01:46.268Z,9.79
2022-11-12T19:04:32.061Z,9.78
2022-11-12T19:07:17.273Z,9.76
2022-11-12T19:10:14.610Z,9.74
2022-11-12T19:13:03.903Z,9.72
2022-11-12T19:15:49.184Z,9.75
2022-11-12T19:18:35.661Z,9.72
2022-11-12T19:21:23.995Z,9.69
2022-11-12T19:24:09.335Z,9.60
2022-11-12T19:26:54.928Z,9.54
2022-11-12T19:29:40.421Z,9.48
2022-11-12T19:32:25.650Z,9.48
2022-11-12T19:35:11.152Z,9.43
2022-11-12T19:37:56.622Z,9.41
2022-11-12T19:40:42.310Z,9.36
2022-11-12T19:43:28.543Z,9.35
2022-11-12T19:46:14.748Z,9.28
2022-11-12T19:49:00.108Z,9.23
2022-11-12T19:51:45.452Z,9.23
2022-11-12T19:54:30.793Z,9.22
2022-11-12T19:57:18.346Z,9.17
2022-11-12T20:00:04.673Z,9.09
2022-11-12T20:02:49.869Z,9.09
2022-11-12T20:05:35.034Z,8.97
2022-11-12T20:08:26.812Z,8.88
2022-11-12T20:11:13.178Z,8.83
2022-11-12T20:13:58.424Z,8.81
2022-11-12T20:16:43.636Z,8.82
2022-11-12T20:19:29.086Z,8.83
2022-11-12T20:22:14.354Z,8.83
2022-11-12T20:25:00.839Z,8.80
2022-11-12T20:27:45.981Z,8.78
2022-11-12T20:30:31.366Z,8.71
2022-11-12T20:33:16.817Z,8.67
2022-11-12T20:36:25.027Z,8.55
2022-11-12T20:39:10.527Z,8.61
2022-11-12T20:41:55.481Z,8.65
2022-11-12T20:44:41.600Z,8.67
2022-11-12T20:47:27.038Z,8.63
2022-11-12T20:50:12.376Z,8.65
2022-11-12T20:52:58.033Z,8.64
2022-11-12T20:55:43.360Z,8.62
2022-11-12T20:58:30.208Z,8.60
2022-11-12T21:01:17.956Z,8.63
2022-11-12T21:04:03.374Z,8.63
2022-11-12T21:06:48.915Z,8.66
2022-11-12T21:09:34.842Z,8.68
2022-11-12T21:12:20.146Z,8.72
2022-11-12T21:15:05.966Z,8.68
2022-11-12T21:17:52.673Z,8.61
2022-11-12T21:20:38.147Z,8.60
2022-11-12T21:23:23.812Z,8.60
2022-11-12T21:26:15.795Z,8.60
2022-11-12T21:29:01.066Z,8.65
2022-11-12T21:31:46.634Z,8.68
2022-11-12T21:34:32.007Z,8.70
2022-11-12T21:37:18.319Z,8.70
2022-11-12T21:40:03.848Z,8.70
2022-11-12T21:42:48.932Z,8.73
2022-11-12T21:45:33.980Z,8.72
2022-11-12T21:48:18.997Z,8.73
2022-11-12T21:51:09.399Z,8.71
2022-11-12T21:53:56.806Z,8.71
2022-11-12T21:56:42.296Z,8.72
2022-11-12T21:59:27.579Z,8.73
2022-11-12T22:02:14.148Z,8.69
2022-11-12T22:04:59.650Z,8.68
2022-11-12T22:07:45.021Z,8.66
2022-11-12T22:10:30.293Z,8.67
2022-11-12T22:13:31.011Z,8.69
2022-11-12T22:16:21.625Z,8.67
2022-11-12T22:19:07.142Z,8.72
2022-11-12T22:21:55.215Z,8.75
2022-11-12T22:24:40.653Z,8.80
2022-11-12T22:27:25.936Z,8.82
2022-11-12T22:30:11.539Z,8.86
2022-11-12T22:32:56.487Z,8.94
2022-11-12T22:35:41.790Z,8.99
2022-11-12T22:38:27.708Z,9.06
2022-11-12T22:41:23.446Z,9.10
2022-11-12T22:44:08.875Z,9.20
2022-11-12T22:46:54.206Z,9.24
2022-11-12T22:49:39.488Z,9.26
2022-11-12T22:52:24.819Z,9.32
2022-11-12T22:55:10.277Z,9.40
2022-11-12T22:57:55.646Z,9.42
2022-11-12T23:00:42.490Z,9.44
2022-11-12T23:03:30.000Z,9.42
2022-11-12T23:06:15.329Z,9.44
2022-11-12T23:09:01.645Z,9.50
2022-11-12T23:11:49.359Z,9.56
2022-11-12T23:14:35.074Z,9.63
2022-11-12T23:17:20.551Z,9.71
2022-11-12T23:20:06.213Z,9.77
2022-11-12T23:22:52.340Z,9.83
2022-11-12T23:25:37.734Z,9.89
2022-11-12T23:28:22.635Z,9.94
2022-11-12T23:31:20.171Z,9.93
2022-11-12T23:34:05.481Z,9.97
2022-11-12T23:36:51.062Z,9.96
2022-11-12T23:39:36.062Z,9.94
2022-11-12T23:42:21.539Z,9.90
2022-11-12T23:45:08.540Z,9.81
2022-11-12T23:47:55.896Z,9.70
2022-11-12T23:50:41.472Z,9.69
2022-11-12T23:53:26.623Z,9.69
2022-11-12T23:56:15.829Z,9.70
2022-11-12T23:59:00.964Z,9.73
